sensor_id;sensor_type;location;lat;lon;timestamp;P1;durP1;ratioP1;P2;durP2;ratioP2
33491;SDS011;20010;51.488;7.232;2023-07-24T00:00:14;5.88;;;5.47;;
33491;SDS011;20010;51.488;7.232;2023-07-24T00:02:40;5.90;;;5.50;;
33491;SDS011;20010;51.488;7.232;2023-07-24T00:05:07;5.97;;;5.63;;
33491;SDS011;20010;51.488;7.232;2023-07-24T00:07:34;5.55;;;5.22;;
33491;SDS011;20010;51.488;7.232;2023-07-24T00:10:01;6.22;;;5.80;;
33491;SDS011;20010;51.488;7.232;2023-07-24T00:12:27;6.10;;;5.70;;
33491;SDS011;20010;51.488;7.232;2023-07-24T00:14:54;5.97;;;5.57;;
33491;SDS011;20010;51.488;7.232;2023-07-24T00:17:20;6.13;;;5.65;;
33491;SDS011;20010;51.488;7.232;2023-07-24T00:19:47;6.53;;;6.07;;
33491;SDS011;20010;51.488;7.232;2023-07-24T00:22:14;5.75;;;5.35;;
33491;SDS011;20010;51.488;7.232;2023-07-24T00:24:41;6.47;;;5.97;;
33491;SDS011;20010;51.488;7.232;2023-07-24T00:27:07;6.22;;;5.63;;
33491;SDS011;20010;51.488;7.232;2023-07-24T00:29:34;6.30;;;5.85;;
33491;SDS011;20010;51.488;7.232;2023-07-24T00:32:00;6.63;;;6.13;;
33491;SDS011;20010;51.488;7.232;2023-07-24T00:34:27;5.90;;;5.50;;
33491;SDS011;20010;51.488;7.232;2023-07-24T00:36:55;6.05;;;5.65;;
33491;SDS011;20010;51.488;7.232;2023-07-24T00:39:23;6.50;;;5.93;;
33491;SDS011;20010;51.488;7.232;2023-07-24T00:41:50;7.32;;;6.32;;
33491;SDS011;20010;51.488;7.232;2023-07-24T00:44:18;6.88;;;6.28;;
33491;SDS011;20010;51.488;7.232;2023-07-24T00:46:44;6.30;;;5.90;;
33491;SDS011;20010;51.488;7.232;2023-07-24T00:49:11;6.20;;;5.70;;
33491;SDS011;20010;51.488;7.232;2023-07-24T00:51:38;6.55;;;5.95;;
33491;SDS011;20010;51.488;7.232;2023-07-24T00:54:05;7.05;;;6.32;;
33491;SDS011;20010;51.488;7.232;2023-07-24T00:56:32;6.40;;;5.90;;
33491;SDS011;20010;51.488;7.232;2023-07-24T00:59:00;6.50;;;6.00;;
33491;SDS011;20010;51.488;7.232;2023-07-24T01:01:27;6.97;;;6.38;;
33491;SDS011;20010;51.488;7.232;2023-07-24T01:03:54;6.70;;;6.18;;
33491;SDS011;20010;51.488;7.232;2023-07-24T01:06:23;6.00;;;5.60;;
33491;SDS011;20010;51.488;7.232;2023-07-24T01:08:50;7.00;;;6.40;;
33491;SDS011;20010;51.488;7.232;2023-07-24T01:11:26;6.00;;;5.60;;
33491;SDS011;20010;51.488;7.232;2023-07-24T01:13:58;6.43;;;5.93;;
33491;SDS011;20010;51.488;7.232;2023-07-24T01:16:45;7.35;;;6.75;;
33491;SDS011;20010;51.488;7.232;2023-07-24T01:27:27;6.57;;;6.07;;
33491;SDS011;20010;51.488;7.232;2023-07-24T01:29:54;5.97;;;5.55;;
33491;SDS011;20010;51.488;7.232;2023-07-24T01:32:21;6.50;;;5.82;;
33491;SDS011;20010;51.488;7.232;2023-07-24T01:34:47;6.80;;;6.30;;
33491;SDS011;20010;51.488;7.232;2023-07-24T01:37:14;6.53;;;6.00;;
33491;SDS011;20010;51.488;7.232;2023-07-24T01:39:41;6.28;;;5.78;;
33491;SDS011;20010;51.488;7.232;2023-07-24T01:42:08;6.05;;;5.55;;
33491;SDS011;20010;51.488;7.232;2023-07-24T01:44:34;8.02;;;5.28;;
33491;SDS011;20010;51.488;7.232;2023-07-24T01:47:01;6.00;;;5.53;;
33491;SDS011;20010;51.488;7.232;2023-07-24T01:49:27;6.28;;;5.78;;
33491;SDS011;20010;51.488;7.232;2023-07-24T01:51:54;5.80;;;5.38;;
33491;SDS011;20010;51.488;7.232;2023-07-24T01:54:21;5.95;;;5.45;;
33491;SDS011;20010;51.488;7.232;2023-07-24T01:56:47;5.68;;;5.28;;
33491;SDS011;20010;51.488;7.232;2023-07-24T01:59:14;6.70;;;5.60;;
33491;SDS011;20010;51.488;7.232;2023-07-24T02:01:40;6.03;;;5.53;;
33491;SDS011;20010;51.488;7.232;2023-07-24T02:04:08;6.18;;;5.75;;
33491;SDS011;20010;51.488;7.232;2023-07-24T02:06:34;7.32;;;5.95;;
33491;SDS011;20010;51.488;7.232;2023-07-24T02:09:01;6.30;;;5.80;;
33491;SDS011;20010;51.488;7.232;2023-07-24T02:11:27;6.03;;;5.63;;
33491;SDS011;20010;51.488;7.232;2023-07-24T02:13:54;7.15;;;5.80;;
33491;SDS011;20010;51.488;7.232;2023-07-24T02:16:20;6.15;;;5.65;;
33491;SDS011;20010;51.488;7.232;2023-07-24T02:18:47;5.80;;;5.30;;
33491;SDS011;20010;51.488;7.232;2023-07-24T02:21:13;5.93;;;5.53;;
33491;SDS011;20010;51.488;7.232;2023-07-24T02:23:40;5.88;;;5.47;;
33491;SDS011;20010;51.488;7.232;2023-07-24T02:26:06;5.88;;;5.47;;
33491;SDS011;20010;51.488;7.232;2023-07-24T02:28:33;6.25;;;5.75;;
33491;SDS011;20010;51.488;7.232;2023-07-24T02:30:59;7.13;;;6.53;;
33491;SDS011;20010;51.488;7.232;2023-07-24T02:33:26;6.35;;;5.75;;
33491;SDS011;20010;51.488;7.232;2023-07-24T02:35:53;6.95;;;6.28;;
33491;SDS011;20010;51.488;7.232;2023-07-24T02:38:19;6.55;;;5.70;;
33491;SDS011;20010;51.488;7.232;2023-07-24T02:40:46;7.50;;;6.90;;
33491;SDS011;20010;51.488;7.232;2023-07-24T02:43:12;6.50;;;6.00;;
33491;SDS011;20010;51.488;7.232;2023-07-24T02:45:39;7.03;;;6.40;;
33491;SDS011;20010;51.488;7.232;2023-07-24T02:48:06;6.72;;;6.07;;
33491;SDS011;20010;51.488;7.232;2023-07-24T02:50:32;6.32;;;5.90;;
33491;SDS011;20010;51.488;7.232;2023-07-24T02:52:59;6.50;;;5.90;;
33491;SDS011;20010;51.488;7.232;2023-07-24T02:55:26;6.60;;;6.03;;
33491;SDS011;20010;51.488;7.232;2023-07-24T02:57:52;6.65;;;6.05;;
33491;SDS011;20010;51.488;7.232;2023-07-24T03:00:19;7.60;;;6.93;;
33491;SDS011;20010;51.488;7.232;2023-07-24T03:02:46;6.68;;;6.18;;
33491;SDS011;20010;51.488;7.232;2023-07-24T03:05:12;6.70;;;6.07;;
33491;SDS011;20010;51.488;7.232;2023-07-24T03:07:39;6.80;;;6.22;;
33491;SDS011;20010;51.488;7.232;2023-07-24T03:10:06;7.57;;;6.88;;
33491;SDS011;20010;51.488;7.232;2023-07-24T03:12:34;7.68;;;6.40;;
33491;SDS011;20010;51.488;7.232;2023-07-24T03:15:00;7.43;;;6.82;;
33491;SDS011;20010;51.488;7.232;2023-07-24T03:17:27;8.25;;;7.00;;
33491;SDS011;20010;51.488;7.232;2023-07-24T03:19:54;7.30;;;6.60;;
33491;SDS011;20010;51.488;7.232;2023-07-24T03:22:21;7.75;;;6.97;;
33491;SDS011;20010;51.488;7.232;2023-07-24T03:24:48;6.43;;;5.93;;
33491;SDS011;20010;51.488;7.232;2023-07-24T03:27:14;7.80;;;6.72;;
33491;SDS011;20010;51.488;7.232;2023-07-24T03:29:41;7.28;;;6.65;;
33491;SDS011;20010;51.488;7.232;2023-07-24T03:32:07;7.82;;;7.15;;
33491;SDS011;20010;51.488;7.232;2023-07-24T03:34:34;7.30;;;6.70;;
33491;SDS011;20010;51.488;7.232;2023-07-24T03:37:00;7.65;;;7.00;;
33491;SDS011;20010;51.488;7.232;2023-07-24T03:39:27;8.07;;;7.30;;
33491;SDS011;20010;51.488;7.232;2023-07-24T03:41:54;7.85;;;7.05;;
33491;SDS011;20010;51.488;7.232;2023-07-24T03:44:20;7.30;;;6.70;;
33491;SDS011;20010;51.488;7.232;2023-07-24T03:46:47;7.60;;;7.00;;
33491;SDS011;20010;51.488;7.232;2023-07-24T03:49:13;7.63;;;6.85;;
33491;SDS011;20010;51.488;7.232;2023-07-24T03:51:40;7.80;;;7.07;;
33491;SDS011;20010;51.488;7.232;2023-07-24T03:54:06;8.13;;;7.35;;
33491;SDS011;20010;51.488;7.232;2023-07-24T03:56:33;8.55;;;7.80;;
33491;SDS011;20010;51.488;7.232;2023-07-24T03:59:00;8.35;;;7.55;;
33491;SDS011;20010;51.488;7.232;2023-07-24T04:01:26;12.52;;;6.95;;
33491;SDS011;20010;51.488;7.232;2023-07-24T04:03:53;8.00;;;7.20;;
33491;SDS011;20010;51.488;7.232;2023-07-24T04:06:19;8.45;;;6.95;;
33491;SDS011;20010;51.488;7.232;2023-07-24T04:08:46;7.60;;;6.95;;
33491;SDS011;20010;51.488;7.232;2023-07-24T04:11:12;8.13;;;7.35;;
33491;SDS011;20010;51.488;7.232;2023-07-24T04:13:39;8.65;;;6.82;;
33491;SDS011;20010;51.488;7.232;2023-07-24T04:16:05;7.68;;;6.97;;
33491;SDS011;20010;51.488;7.232;2023-07-24T04:18:32;7.78;;;6.97;;
33491;SDS011;20010;51.488;7.232;2023-07-24T04:20:59;7.63;;;6.82;;
33491;SDS011;20010;51.488;7.232;2023-07-24T04:23:25;9.07;;;6.97;;
33491;SDS011;20010;51.488;7.232;2023-07-24T04:25:52;7.53;;;6.90;;
33491;SDS011;20010;51.488;7.232;2023-07-24T04:28:18;7.45;;;6.78;;
33491;SDS011;20010;51.488;7.232;2023-07-24T04:30:45;7.32;;;6.72;;
33491;SDS011;20010;51.488;7.232;2023-07-24T04:33:11;9.95;;;7.65;;
33491;SDS011;20010;51.488;7.232;2023-07-24T04:35:38;8.02;;;6.68;;
33491;SDS011;20010;51.488;7.232;2023-07-24T04:38:04;7.97;;;7.13;;
33491;SDS011;20010;51.488;7.232;2023-07-24T04:40:31;8.45;;;7.60;;
33491;SDS011;20010;51.488;7.232;2023-07-24T04:42:58;7.50;;;6.88;;
33491;SDS011;20010;51.488;7.232;2023-07-24T04:45:25;7.68;;;6.82;;
33491;SDS011;20010;51.488;7.232;2023-07-24T04:47:52;8.38;;;7.25;;
33491;SDS011;20010;51.488;7.232;2023-07-24T04:50:19;7.38;;;6.72;;
33491;SDS011;20010;51.488;7.232;2023-07-24T04:52:45;7.53;;;6.93;;
33491;SDS011;20010;51.488;7.232;2023-07-24T04:55:12;7.88;;;7.18;;
33491;SDS011;20010;51.488;7.232;2023-07-24T04:57:38;7.97;;;7.13;;
33491;SDS011;20010;51.488;7.232;2023-07-24T05:02:38;8.02;;;7.30;;
33491;SDS011;20010;51.488;7.232;2023-07-24T05:05:05;7.95;;;7.22;;
33491;SDS011;20010;51.488;7.232;2023-07-24T05:07:32;9.38;;;7.10;;
33491;SDS011;20010;51.488;7.232;2023-07-24T05:09:59;8.07;;;7.13;;
33491;SDS011;20010;51.488;7.232;2023-07-24T05:12:25;8.55;;;7.20;;
33491;SDS011;20010;51.488;7.232;2023-07-24T05:14:52;10.45;;;7.78;;
33491;SDS011;20010;51.488;7.232;2023-07-24T05:17:19;8.18;;;7.35;;
33491;SDS011;20010;51.488;7.232;2023-07-24T05:19:45;13.13;;;7.85;;
33491;SDS011;20010;51.488;7.232;2023-07-24T05:22:12;9.27;;;7.90;;
33491;SDS011;20010;51.488;7.232;2023-07-24T05:24:38;7.38;;;6.70;;
33491;SDS011;20010;51.488;7.232;2023-07-24T05:27:05;7.97;;;7.07;;
33491;SDS011;20010;51.488;7.232;2023-07-24T05:29:32;8.73;;;7.93;;
33491;SDS011;20010;51.488;7.232;2023-07-24T05:31:58;8.95;;;8.10;;
33491;SDS011;20010;51.488;7.232;2023-07-24T05:34:25;7.50;;;6.85;;
33491;SDS011;20010;51.488;7.232;2023-07-24T05:36:52;7.82;;;7.15;;
33491;SDS011;20010;51.488;7.232;2023-07-24T05:39:18;7.57;;;6.85;;
33491;SDS011;20010;51.488;7.232;2023-07-24T05:41:46;6.60;;;6.00;;
33491;SDS011;20010;51.488;7.232;2023-07-24T05:44:13;8.77;;;7.70;;
33491;SDS011;20010;51.488;7.232;2023-07-24T05:46:40;8.57;;;7.75;;
33491;SDS011;20010;51.488;7.232;2023-07-24T05:49:06;8.18;;;7.47;;
33491;SDS011;20010;51.488;7.232;2023-07-24T05:51:33;7.80;;;6.95;;
33491;SDS011;20010;51.488;7.232;2023-07-24T05:53:59;10.70;;;7.68;;
33491;SDS011;20010;51.488;7.232;2023-07-24T05:56:26;10.90;;;7.88;;
33491;SDS011;20010;51.488;7.232;2023-07-24T05:58:54;7.93;;;7.13;;
33491;SDS011;20010;51.488;7.232;2023-07-24T06:01:21;7.88;;;7.18;;
33491;SDS011;20010;51.488;7.232;2023-07-24T06:03:47;9.20;;;7.63;;
33491;SDS011;20010;51.488;7.232;2023-07-24T06:06:14;9.63;;;8.05;;
33491;SDS011;20010;51.488;7.232;2023-07-24T06:08:41;8.43;;;6.85;;
33491;SDS011;20010;51.488;7.232;2023-07-24T06:11:07;8.80;;;7.78;;
33491;SDS011;20010;51.488;7.232;2023-07-24T06:13:34;7.13;;;6.50;;
33491;SDS011;20010;51.488;7.232;2023-07-24T06:16:00;8.93;;;7.53;;
33491;SDS011;20010;51.488;7.232;2023-07-24T06:18:27;7.50;;;6.78;;
33491;SDS011;20010;51.488;7.232;2023-07-24T06:20:53;7.45;;;6.75;;
33491;SDS011;20010;51.488;7.232;2023-07-24T06:23:20;8.10;;;7.00;;
33491;SDS011;20010;51.488;7.232;2023-07-24T06:25:47;7.80;;;7.10;;
33491;SDS011;20010;51.488;7.232;2023-07-24T06:28:13;9.07;;;8.00;;
33491;SDS011;20010;51.488;7.232;2023-07-24T06:30:40;8.43;;;6.68;;
33491;SDS011;20010;51.488;7.232;2023-07-24T06:33:06;8.32;;;6.80;;
33491;SDS011;20010;51.488;7.232;2023-07-24T06:35:33;9.75;;;7.00;;
33491;SDS011;20010;51.488;7.232;2023-07-24T06:38:00;7.65;;;6.93;;
33491;SDS011;20010;51.488;7.232;2023-07-24T06:40:26;8.20;;;7.20;;
33491;SDS011;20010;51.488;7.232;2023-07-24T06:42:53;8.52;;;7.40;;
33491;SDS011;20010;51.488;7.232;2023-07-24T06:45:20;8.15;;;6.85;;
33491;SDS011;20010;51.488;7.232;2023-07-24T06:47:46;7.90;;;7.15;;
33491;SDS011;20010;51.488;7.232;2023-07-24T06:50:13;7.28;;;6.68;;
33491;SDS011;20010;51.488;7.232;2023-07-24T06:52:40;8.10;;;7.30;;
33491;SDS011;20010;51.488;7.232;2023-07-24T06:55:06;8.63;;;7.40;;
33491;SDS011;20010;51.488;7.232;2023-07-24T06:57:33;10.98;;;7.45;;
33491;SDS011;20010;51.488;7.232;2023-07-24T07:00:00;7.80;;;7.00;;
33491;SDS011;20010;51.488;7.232;2023-07-24T07:02:26;7.82;;;7.00;;
33491;SDS011;20010;51.488;7.232;2023-07-24T07:04:54;7.97;;;6.38;;
33491;SDS011;20010;51.488;7.232;2023-07-24T07:07:21;7.70;;;6.90;;
33491;SDS011;20010;51.488;7.232;2023-07-24T07:09:47;7.82;;;7.07;;
33491;SDS011;20010;51.488;7.232;2023-07-24T07:12:14;7.65;;;6.90;;
33491;SDS011;20010;51.488;7.232;2023-07-24T07:14:41;7.40;;;6.80;;
33491;SDS011;20010;51.488;7.232;2023-07-24T07:17:07;15.63;;;7.95;;
33491;SDS011;20010;51.488;7.232;2023-07-24T07:19:34;7.20;;;6.38;;
33491;SDS011;20010;51.488;7.232;2023-07-24T07:22:02;8.82;;;6.63;;
33491;SDS011;20010;51.488;7.232;2023-07-24T07:24:28;7.63;;;6.97;;
33491;SDS011;20010;51.488;7.232;2023-07-24T07:26:55;8.85;;;7.97;;
33491;SDS011;20010;51.488;7.232;2023-07-24T07:29:22;8.38;;;7.47;;
33491;SDS011;20010;51.488;7.232;2023-07-24T07:31:48;7.88;;;7.18;;
33491;SDS011;20010;51.488;7.232;2023-07-24T07:34:15;9.73;;;6.65;;
33491;SDS011;20010;51.488;7.232;2023-07-24T07:36:41;7.20;;;6.70;;
33491;SDS011;20010;51.488;7.232;2023-07-24T07:39:08;8.35;;;6.50;;
33491;SDS011;20010;51.488;7.232;2023-07-24T07:41:35;8.45;;;6.93;;
33491;SDS011;20010;51.488;7.232;2023-07-24T07:44:02;6.60;;;6.00;;
33491;SDS011;20010;51.488;7.232;2023-07-24T07:46:29;8.57;;;6.55;;
33491;SDS011;20010;51.488;7.232;2023-07-24T07:48:56;7.47;;;6.95;;
33491;SDS011;20010;51.488;7.232;2023-07-24T07:51:22;6.88;;;5.75;;
33491;SDS011;20010;51.488;7.232;2023-07-24T07:53:51;7.68;;;6.93;;
33491;SDS011;20010;51.488;7.232;2023-07-24T07:56:18;7.30;;;6.57;;
33491;SDS011;20010;51.488;7.232;2023-07-24T07:58:44;9.20;;;6.38;;
33491;SDS011;20010;51.488;7.232;2023-07-24T08:01:11;8.88;;;6.28;;
33491;SDS011;20010;51.488;7.232;2023-07-24T08:03:38;8.02;;;7.32;;
33491;SDS011;20010;51.488;7.232;2023-07-24T08:06:04;7.22;;;6.60;;
33491;SDS011;20010;51.488;7.232;2023-07-24T08:08:32;6.60;;;6.10;;
33491;SDS011;20010;51.488;7.232;2023-07-24T08:11:03;8.30;;;6.22;;
33491;SDS011;20010;51.488;7.232;2023-07-24T08:13:30;6.78;;;6.18;;
33491;SDS011;20010;51.488;7.232;2023-07-24T08:15:57;7.07;;;6.38;;
33491;SDS011;20010;51.488;7.232;2023-07-24T08:18:25;6.60;;;5.90;;
33491;SDS011;20010;51.488;7.232;2023-07-24T08:20:52;6.32;;;5.78;;
33491;SDS011;20010;51.488;7.232;2023-07-24T08:23:18;6.65;;;6.05;;
33491;SDS011;20010;51.488;7.232;2023-07-24T08:25:54;6.28;;;5.75;;
33491;SDS011;20010;51.488;7.232;2023-07-24T08:28:21;7.22;;;6.28;;
33491;SDS011;20010;51.488;7.232;2023-07-24T08:30:57;6.70;;;5.70;;
33491;SDS011;20010;51.488;7.232;2023-07-24T08:33:25;6.07;;;5.50;;
33491;SDS011;20010;51.488;7.232;2023-07-24T08:36:06;6.38;;;5.80;;
33491;SDS011;20010;51.488;7.232;2023-07-24T08:38:33;6.10;;;5.70;;
33491;SDS011;20010;51.488;7.232;2023-07-24T08:41:05;6.78;;;6.13;;
33491;SDS011;20010;51.488;7.232;2023-07-24T08:43:33;7.25;;;6.05;;
33491;SDS011;20010;51.488;7.232;2023-07-24T08:46:00;5.78;;;5.32;;
33491;SDS011;20010;51.488;7.232;2023-07-24T08:48:31;6.63;;;6.13;;
33491;SDS011;20010;51.488;7.232;2023-07-24T08:51:02;6.85;;;6.25;;
33491;SDS011;20010;51.488;7.232;2023-07-24T08:53:30;6.60;;;6.10;;
33491;SDS011;20010;51.488;7.232;2023-07-24T08:55:57;6.53;;;6.03;;
33491;SDS011;20010;51.488;7.232;2023-07-24T08:58:25;6.22;;;5.78;;
33491;SDS011;20010;51.488;7.232;2023-07-24T09:00:51;6.75;;;6.25;;
33491;SDS011;20010;51.488;7.232;2023-07-24T09:03:18;7.47;;;6.38;;
33491;SDS011;20010;51.488;7.232;2023-07-24T09:05:45;6.60;;;6.10;;
33491;SDS011;20010;51.488;7.232;2023-07-24T09:08:12;6.10;;;5.53;;
33491;SDS011;20010;51.488;7.232;2023-07-24T09:10:39;5.93;;;5.53;;
33491;SDS011;20010;51.488;7.232;2023-07-24T09:13:06;7.13;;;6.43;;
33491;SDS011;20010;51.488;7.232;2023-07-24T09:15:43;6.32;;;5.70;;
33491;SDS011;20010;51.488;7.232;2023-07-24T09:18:10;6.30;;;5.85;;
33491;SDS011;20010;51.488;7.232;2023-07-24T09:20:41;6.43;;;5.93;;
33491;SDS011;20010;51.488;7.232;2023-07-24T09:23:09;6.75;;;6.15;;
33491;SDS011;20010;51.488;7.232;2023-07-24T09:25:43;6.47;;;5.82;;
33491;SDS011;20010;51.488;7.232;2023-07-24T09:28:12;6.13;;;5.63;;
33491;SDS011;20010;51.488;7.232;2023-07-24T09:30:39;5.68;;;5.10;;
33491;SDS011;20010;51.488;7.232;2023-07-24T09:33:06;5.57;;;5.18;;
33491;SDS011;20010;51.488;7.232;2023-07-24T09:35:34;6.03;;;5.53;;
33491;SDS011;20010;51.488;7.232;2023-07-24T09:38:01;5.60;;;5.20;;
33491;SDS011;20010;51.488;7.232;2023-07-24T09:40:36;6.30;;;5.72;;
33491;SDS011;20010;51.488;7.232;2023-07-24T09:43:13;5.93;;;5.40;;
33491;SDS011;20010;51.488;7.232;2023-07-24T09:46:06;5.65;;;5.15;;
33491;SDS011;20010;51.488;7.232;2023-07-24T09:48:33;5.90;;;5.30;;
33491;SDS011;20010;51.488;7.232;2023-07-24T09:51:04;6.75;;;5.70;;
33491;SDS011;20010;51.488;7.232;2023-07-24T09:53:32;7.68;;;5.40;;
33491;SDS011;20010;51.488;7.232;2023-07-24T09:56:04;6.63;;;6.03;;
33491;SDS011;20010;51.488;7.232;2023-07-24T09:58:33;5.90;;;5.47;;
33491;SDS011;20010;51.488;7.232;2023-07-24T10:01:04;6.43;;;5.93;;
33491;SDS011;20010;51.488;7.232;2023-07-24T10:04:07;6.55;;;5.97;;
33491;SDS011;20010;51.488;7.232;2023-07-24T10:06:27;6.47;;;5.97;;
33491;SDS011;20010;51.488;7.232;2023-07-24T10:08:56;6.28;;;5.75;;
33491;SDS011;20010;51.488;7.232;2023-07-24T10:11:22;10.27;;;5.97;;
33491;SDS011;20010;51.488;7.232;2023-07-24T10:13:50;6.38;;;5.78;;
33491;SDS011;20010;51.488;7.232;2023-07-24T10:16:16;6.55;;;5.95;;
33491;SDS011;20010;51.488;7.232;2023-07-24T10:18:44;6.82;;;6.22;;
33491;SDS011;20010;51.488;7.232;2023-07-24T10:21:12;6.60;;;5.78;;
33491;SDS011;20010;51.488;7.232;2023-07-24T10:23:42;6.03;;;5.63;;
33491;SDS011;20010;51.488;7.232;2023-07-24T10:26:10;6.80;;;5.85;;
33491;SDS011;20010;51.488;7.232;2023-07-24T10:28:37;5.88;;;5.47;;
33491;SDS011;20010;51.488;7.232;2023-07-24T10:31:18;6.28;;;5.68;;
33491;SDS011;20010;51.488;7.232;2023-07-24T10:33:46;6.43;;;5.93;;
33491;SDS011;20010;51.488;7.232;2023-07-24T10:36:16;7.10;;;6.60;;
33491;SDS011;20010;51.488;7.232;2023-07-24T10:38:45;5.95;;;5.45;;
33491;SDS011;20010;51.488;7.232;2023-07-24T10:41:13;6.60;;;6.10;;
33491;SDS011;20010;51.488;7.232;2023-07-24T10:43:43;6.72;;;6.13;;
33491;SDS011;20010;51.488;7.232;2023-07-24T10:46:14;6.22;;;5.68;;
33491;SDS011;20010;51.488;7.232;2023-07-24T10:48:42;6.85;;;6.30;;
33491;SDS011;20010;51.488;7.232;2023-07-24T10:51:11;9.07;;;6.85;;
33491;SDS011;20010;51.488;7.232;2023-07-24T10:53:58;6.22;;;5.70;;
33491;SDS011;20010;51.488;7.232;2023-07-24T10:56:25;6.50;;;6.00;;
33491;SDS011;20010;51.488;7.232;2023-07-24T10:58:52;7.13;;;6.47;;
33491;SDS011;20010;51.488;7.232;2023-07-24T11:01:18;7.43;;;6.50;;
33491;SDS011;20010;51.488;7.232;2023-07-24T11:03:45;7.53;;;6.72;;
33491;SDS011;20010;51.488;7.232;2023-07-24T11:06:19;6.97;;;6.22;;
33491;SDS011;20010;51.488;7.232;2023-07-24T11:08:55;7.07;;;6.47;;
33491;SDS011;20010;51.488;7.232;2023-07-24T11:11:29;6.95;;;6.25;;
33491;SDS011;20010;51.488;7.232;2023-07-24T11:13:56;7.22;;;6.20;;
33491;SDS011;20010;51.488;7.232;2023-07-24T11:16:24;6.85;;;6.25;;
33491;SDS011;20010;51.488;7.232;2023-07-24T11:18:51;7.78;;;6.47;;
33491;SDS011;20010;51.488;7.232;2023-07-24T11:23:51;6.50;;;6.10;;
33491;SDS011;20010;51.488;7.232;2023-07-24T11:26:20;7.72;;;6.90;;
33491;SDS011;20010;51.488;7.232;2023-07-24T11:28:51;7.50;;;6.80;;
33491;SDS011;20010;51.488;7.232;2023-07-24T11:31:18;7.15;;;6.55;;
33491;SDS011;20010;51.488;7.232;2023-07-24T11:33:51;7.10;;;6.50;;
33491;SDS011;20010;51.488;7.232;2023-07-24T11:36:18;7.25;;;6.75;;
33491;SDS011;20010;51.488;7.232;2023-07-24T11:38:45;8.07;;;7.47;;
33491;SDS011;20010;51.488;7.232;2023-07-24T11:41:12;8.02;;;7.40;;
33491;SDS011;20010;51.488;7.232;2023-07-24T11:43:46;8.35;;;7.63;;
33491;SDS011;20010;51.488;7.232;2023-07-24T11:46:24;7.57;;;6.90;;
33491;SDS011;20010;51.488;7.232;2023-07-24T11:48:54;7.75;;;7.15;;
33491;SDS011;20010;51.488;7.232;2023-07-24T11:51:27;8.20;;;7.43;;
33491;SDS011;20010;51.488;7.232;2023-07-24T11:54:06;9.90;;;7.60;;
33491;SDS011;20010;51.488;7.232;2023-07-24T11:56:34;7.80;;;7.20;;
33491;SDS011;20010;51.488;7.232;2023-07-24T11:59:10;8.07;;;7.38;;
33491;SDS011;20010;51.488;7.232;2023-07-24T12:01:37;8.05;;;7.38;;
33491;SDS011;20010;51.488;7.232;2023-07-24T12:04:04;8.27;;;7.47;;
33491;SDS011;20010;51.488;7.232;2023-07-24T12:06:31;16.35;;;7.97;;
33491;SDS011;20010;51.488;7.232;2023-07-24T12:09:02;8.90;;;7.25;;
33491;SDS011;20010;51.488;7.232;2023-07-24T12:11:31;9.02;;;8.00;;
33491;SDS011;20010;51.488;7.232;2023-07-24T12:13:58;7.55;;;5.82;;
33491;SDS011;20010;51.488;7.232;2023-07-24T12:16:24;4.68;;;4.38;;
33491;SDS011;20010;51.488;7.232;2023-07-24T12:18:51;5.65;;;5.18;;
33491;SDS011;20010;51.488;7.232;2023-07-24T12:21:18;5.38;;;4.88;;
33491;SDS011;20010;51.488;7.232;2023-07-24T12:23:44;13.25;;;6.07;;
33491;SDS011;20010;51.488;7.232;2023-07-24T12:26:11;7.10;;;6.45;;
33491;SDS011;20010;51.488;7.232;2023-07-24T12:28:37;6.07;;;4.93;;
33491;SDS011;20010;51.488;7.232;2023-07-24T12:31:04;4.95;;;4.65;;
33491;SDS011;20010;51.488;7.232;2023-07-24T12:33:31;4.57;;;4.28;;
33491;SDS011;20010;51.488;7.232;2023-07-24T12:35:58;6.10;;;4.85;;
33491;SDS011;20010;51.488;7.232;2023-07-24T12:38:24;4.82;;;4.43;;
33491;SDS011;20010;51.488;7.232;2023-07-24T12:40:51;4.95;;;4.50;;
33491;SDS011;20010;51.488;7.232;2023-07-24T12:43:18;4.90;;;4.50;;
33491;SDS011;20010;51.488;7.232;2023-07-24T12:45:44;5.18;;;4.25;;
33491;SDS011;20010;51.488;7.232;2023-07-24T12:48:11;4.95;;;4.57;;
33491;SDS011;20010;51.488;7.232;2023-07-24T12:50:37;4.20;;;3.80;;
33491;SDS011;20010;51.488;7.232;2023-07-24T12:53:04;4.78;;;4.38;;
33491;SDS011;20010;51.488;7.232;2023-07-24T12:55:37;4.72;;;4.32;;
33491;SDS011;20010;51.488;7.232;2023-07-24T12:58:04;4.93;;;4.53;;
33491;SDS011;20010;51.488;7.232;2023-07-24T13:00:30;4.60;;;4.30;;
33491;SDS011;20010;51.488;7.232;2023-07-24T13:02:58;4.78;;;4.38;;
33491;SDS011;20010;51.488;7.232;2023-07-24T13:05:24;4.18;;;3.88;;
33491;SDS011;20010;51.488;7.232;2023-07-24T13:07:51;4.22;;;3.92;;
33491;SDS011;20010;51.488;7.232;2023-07-24T13:10:18;4.80;;;4.10;;
33491;SDS011;20010;51.488;7.232;2023-07-24T13:12:44;4.90;;;4.50;;
33491;SDS011;20010;51.488;7.232;2023-07-24T13:15:11;3.70;;;3.45;;
33491;SDS011;20010;51.488;7.232;2023-07-24T13:17:37;4.50;;;3.92;;
33491;SDS011;20010;51.488;7.232;2023-07-24T13:20:04;4.35;;;4.05;;
33491;SDS011;20010;51.488;7.232;2023-07-24T13:22:31;3.50;;;3.30;;
33491;SDS011;20010;51.488;7.232;2023-07-24T13:24:58;3.63;;;3.42;;
33491;SDS011;20010;51.488;7.232;2023-07-24T13:27:25;3.95;;;3.63;;
33491;SDS011;20010;51.488;7.232;2023-07-24T13:29:51;4.50;;;4.10;;
33491;SDS011;20010;51.488;7.232;2023-07-24T13:32:18;4.10;;;3.90;;
33491;SDS011;20010;51.488;7.232;2023-07-24T13:34:44;4.88;;;4.57;;
33491;SDS011;20010;51.488;7.232;2023-07-24T13:37:11;4.68;;;4.28;;
33491;SDS011;20010;51.488;7.232;2023-07-24T13:39:38;4.32;;;4.07;;
33491;SDS011;20010;51.488;7.232;2023-07-24T13:42:04;4.63;;;4.32;;
33491;SDS011;20010;51.488;7.232;2023-07-24T13:44:31;5.10;;;4.82;;
33491;SDS011;20010;51.488;7.232;2023-07-24T13:46:58;5.53;;;5.03;;
33491;SDS011;20010;51.488;7.232;2023-07-24T13:49:24;4.95;;;4.55;;
33491;SDS011;20010;51.488;7.232;2023-07-24T13:51:51;5.05;;;4.75;;
33491;SDS011;20010;51.488;7.232;2023-07-24T13:54:18;5.40;;;4.90;;
33491;SDS011;20010;51.488;7.232;2023-07-24T13:56:44;4.60;;;4.30;;
33491;SDS011;20010;51.488;7.232;2023-07-24T13:59:11;5.20;;;4.80;;
33491;SDS011;20010;51.488;7.232;2023-07-24T14:01:37;5.00;;;4.68;;
33491;SDS011;20010;51.488;7.232;2023-07-24T14:04:04;4.75;;;4.53;;
33491;SDS011;20010;51.488;7.232;2023-07-24T14:06:31;5.00;;;4.70;;
33491;SDS011;20010;51.488;7.232;2023-07-24T14:08:58;4.75;;;4.45;;
33491;SDS011;20010;51.488;7.232;2023-07-24T14:11:24;5.07;;;4.78;;
33491;SDS011;20010;51.488;7.232;2023-07-24T14:13:53;4.50;;;4.20;;
33491;SDS011;20010;51.488;7.232;2023-07-24T14:16:19;4.38;;;4.18;;
33491;SDS011;20010;51.488;7.232;2023-07-24T14:18:46;5.03;;;4.72;;
33491;SDS011;20010;51.488;7.232;2023-07-24T14:21:12;5.57;;;5.25;;
33491;SDS011;20010;51.488;7.232;2023-07-24T14:23:39;5.13;;;4.72;;
33491;SDS011;20010;51.488;7.232;2023-07-24T14:26:06;5.60;;;5.20;;
33491;SDS011;20010;51.488;7.232;2023-07-24T14:28:32;5.93;;;5.53;;
33491;SDS011;20010;51.488;7.232;2023-07-24T14:30:59;5.47;;;5.18;;
33491;SDS011;20010;51.488;7.232;2023-07-24T14:33:25;5.32;;;5.03;;
33491;SDS011;20010;51.488;7.232;2023-07-24T14:35:52;5.35;;;5.05;;
33491;SDS011;20010;51.488;7.232;2023-07-24T14:38:21;5.20;;;4.90;;
33491;SDS011;20010;51.488;7.232;2023-07-24T14:40:47;5.03;;;4.72;;
33491;SDS011;20010;51.488;7.232;2023-07-24T14:43:14;4.90;;;4.60;;
33491;SDS011;20010;51.488;7.232;2023-07-24T14:45:41;4.43;;;4.22;;
33491;SDS011;20010;51.488;7.232;2023-07-24T14:48:07;5.35;;;4.95;;
33491;SDS011;20010;51.488;7.232;2023-07-24T14:50:39;5.13;;;4.88;;
33491;SDS011;20010;51.488;7.232;2023-07-24T14:53:05;13.07;;;5.57;;
33491;SDS011;20010;51.488;7.232;2023-07-24T14:55:32;6.20;;;5.68;;
33491;SDS011;20010;51.488;7.232;2023-07-24T14:57:59;5.43;;;5.00;;
33491;SDS011;20010;51.488;7.232;2023-07-24T15:00:25;6.10;;;5.60;;
33491;SDS011;20010;51.488;7.232;2023-07-24T15:02:52;7.32;;;6.82;;